createdAt,value
2023-04-27T00:01:11.186Z,5.27
2023-04-27T00:03:38.109Z,4.40
2023-04-27T00:06:04.821Z,5.10
2023-04-27T00:08:33.764Z,4.23
2023-04-27T00:11:00.806Z,5.17
2023-04-27T00:13:27.771Z,5.97
2023-04-27T00:15:55.792Z,5.77
2023-04-27T00:18:22.477Z,5.77
2023-04-27T00:20:48.917Z,4.83
2023-04-27T00:23:15.303Z,5.57
2023-04-27T00:25:41.902Z,6.40
2023-04-27T00:28:08.512Z,4.67
2023-04-27T00:30:36.032Z,4.53
2023-04-27T00:33:02.527Z,6.03
2023-04-27T00:35:29.098Z,5.87
2023-04-27T00:37:55.728Z,6.37
2023-04-27T00:40:22.156Z,5.40
2023-04-27T00:42:48.536Z,6.00
2023-04-27T00:45:15.000Z,5.87
2023-04-27T00:47:42.178Z,5.43
2023-04-27T00:50:10.493Z,5.87
2023-04-27T00:52:36.935Z,6.07
2023-04-27T00:55:04.923Z,5.03
2023-04-27T00:57:32.014Z,5.30
2023-04-27T01:00:00.207Z,4.67
2023-04-27T01:02:27.061Z,6.93
2023-04-27T01:04:54.022Z,6.23
2023-04-27T01:07:24.796Z,5.73
2023-04-27T01:09:51.352Z,5.47
2023-04-27T01:12:17.797Z,6.00
2023-04-27T01:14:44.184Z,6.30
2023-04-27T01:17:11.063Z,6.03
2023-04-27T01:19:38.316Z,4.57
2023-04-27T01:22:04.739Z,6.83
2023-04-27T01:24:34.069Z,5.73
2023-04-27T01:27:01.837Z,5.40
2023-04-27T01:29:28.479Z,4.70
2023-04-27T01:31:54.972Z,5.47
2023-04-27T01:34:21.461Z,6.07
2023-04-27T01:36:47.876Z,5.73
2023-04-27T01:39:14.705Z,5.43
2023-04-27T01:41:41.773Z,6.83
2023-04-27T01:44:08.201Z,4.57
2023-04-27T01:46:34.775Z,4.73
2023-04-27T01:49:01.546Z,6.27
2023-04-27T01:51:28.007Z,5.90
2023-04-27T01:53:57.072Z,5.43
2023-04-27T01:56:28.589Z,5.23
2023-04-27T01:58:55.369Z,5.97
2023-04-27T02:01:21.869Z,5.17
2023-04-27T02:03:48.615Z,6.40
2023-04-27T02:06:15.399Z,5.80
2023-04-27T02:08:41.794Z,7.03
2023-04-27T02:11:08.306Z,5.40
2023-04-27T02:13:34.808Z,5.10
2023-04-27T02:16:03.302Z,5.07
2023-04-27T02:18:29.988Z,4.77
2023-04-27T02:20:57.783Z,6.20
2023-04-27T02:23:24.293Z,5.00
2023-04-27T02:25:51.553Z,4.63
2023-04-27T02:28:18.027Z,5.37
2023-04-27T02:30:45.216Z,5.53
2023-04-27T02:33:11.869Z,4.83
2023-04-27T02:35:41.166Z,5.20
2023-04-27T02:38:07.639Z,4.60
2023-04-27T02:40:34.000Z,6.80
2023-04-27T02:43:00.505Z,5.23
2023-04-27T02:45:27.147Z,6.03
2023-04-27T02:47:53.679Z,5.50
2023-04-27T02:50:20.091Z,5.53
2023-04-27T02:52:46.657Z,5.10
2023-04-27T02:55:14.506Z,5.60
2023-04-27T02:57:42.766Z,5.00
2023-04-27T03:00:10.492Z,5.73
2023-04-27T03:02:36.963Z,5.50
2023-04-27T03:05:04.461Z,5.47
2023-04-27T03:07:31.752Z,5.53
2023-04-27T03:09:58.446Z,5.83
2023-04-27T03:12:24.791Z,6.23
2023-04-27T03:14:51.180Z,6.23
2023-04-27T03:17:17.520Z,5.17
2023-04-27T03:19:44.041Z,4.93
2023-04-27T03:22:10.452Z,6.17
2023-04-27T03:24:36.801Z,4.73
2023-04-27T03:27:03.160Z,5.27
2023-04-27T03:29:29.681Z,6.63
2023-04-27T03:31:56.157Z,6.13
2023-04-27T03:34:23.531Z,5.30
2023-04-27T03:36:50.902Z,5.80
2023-04-27T03:39:17.320Z,5.67
2023-04-27T03:41:44.968Z,5.90
2023-04-27T03:44:11.656Z,5.93
2023-04-27T03:46:38.046Z,5.90
2023-04-27T03:49:04.489Z,6.00
2023-04-27T03:51:33.216Z,5.10
2023-04-27T03:54:00.300Z,6.47
2023-04-27T03:56:34.442Z,5.50
2023-04-27T03:59:00.984Z,6.60
2023-04-27T04:01:27.467Z,5.53
2023-04-27T04:03:54.366Z,6.00
2023-04-27T04:06:21.088Z,6.37
2023-04-27T04:08:47.620Z,5.87
2023-04-27T04:11:14.150Z,5.67
2023-04-27T04:13:42.228Z,5.73
2023-04-27T04:16:09.550Z,5.53
2023-04-27T04:18:36.579Z,5.63
2023-04-27T04:21:03.184Z,4.63
2023-04-27T04:23:29.787Z,4.87
2023-04-27T04:25:58.581Z,4.40
2023-04-27T04:28:25.464Z,4.13
2023-04-27T04:30:52.367Z,5.27
2023-04-27T04:33:18.769Z,4.20
2023-04-27T04:35:45.272Z,4.10
2023-04-27T04:38:11.762Z,3.67
2023-04-27T04:40:39.152Z,3.97
2023-04-27T04:43:05.771Z,4.03
2023-04-27T04:45:32.231Z,4.60
2023-04-27T04:48:00.869Z,5.33
2023-04-27T04:50:27.313Z,6.67
2023-04-27T04:52:54.010Z,3.27
2023-04-27T04:55:20.444Z,4.73
2023-04-27T04:57:46.976Z,4.13
2023-04-27T05:00:13.963Z,3.63
2023-04-27T05:02:41.102Z,3.87
2023-04-27T05:05:08.021Z,3.87
2023-04-27T05:07:34.665Z,4.20
2023-04-27T05:10:01.200Z,4.10
2023-04-27T05:12:27.728Z,3.50
2023-04-27T05:14:54.084Z,4.57
2023-04-27T05:17:23.541Z,4.33
2023-04-27T05:19:49.989Z,4.53
2023-04-27T05:22:16.431Z,4.83
2023-04-27T05:24:43.022Z,4.93
2023-04-27T05:27:09.654Z,5.13
2023-04-27T05:29:37.504Z,5.40
2023-04-27T05:32:04.155Z,5.47
2023-04-27T05:34:30.554Z,4.17
2023-04-27T05:36:57.025Z,5.33
2023-04-27T05:39:23.675Z,5.40
2023-04-27T05:41:50.119Z,4.47
2023-04-27T05:44:16.805Z,4.30
2023-04-27T05:46:45.244Z,4.20
2023-04-27T05:49:11.885Z,5.00
2023-04-27T05:51:41.525Z,5.07
2023-04-27T05:54:08.278Z,4.50
2023-04-27T05:56:34.648Z,5.53
2023-04-27T05:59:02.641Z,5.10
2023-04-27T06:01:29.416Z,4.43
2023-04-27T06:03:56.235Z,4.47
2023-04-27T06:06:23.122Z,4.30
2023-04-27T06:08:49.585Z,4.90
2023-04-27T06:11:16.507Z,4.27
2023-04-27T06:13:45.944Z,2.83
2023-04-27T06:16:12.426Z,3.70
2023-04-27T06:18:39.049Z,4.07
2023-04-27T06:21:07.152Z,4.43
2023-04-27T06:23:33.601Z,3.93
2023-04-27T06:26:00.104Z,4.20
2023-04-27T06:28:27.072Z,9.93
2023-04-27T06:30:53.785Z,8.43
2023-04-27T06:33:20.283Z,6.50
2023-04-27T06:35:47.567Z,4.47
2023-04-27T06:38:14.021Z,4.23
2023-04-27T06:40:40.441Z,4.00
2023-04-27T06:43:06.909Z,4.80
2023-04-27T06:45:33.357Z,3.63
2023-04-27T06:47:59.770Z,4.20
2023-04-27T06:50:26.247Z,3.92
2023-04-27T06:52:52.672Z,4.05
2023-04-27T06:55:19.139Z,4.35
2023-04-27T06:57:45.660Z,7.43
2023-04-27T07:00:13.384Z,7.88
2023-04-27T07:02:39.862Z,6.32
2023-04-27T07:05:06.403Z,6.25
2023-04-27T07:07:32.833Z,5.32
2023-04-27T07:09:59.193Z,5.13
2023-04-27T07:12:25.709Z,4.78
2023-04-27T07:14:52.069Z,5.85
2023-04-27T07:17:18.408Z,5.45
2023-04-27T07:19:44.896Z,6.88
2023-04-27T07:22:11.778Z,4.78
2023-04-27T07:24:38.160Z,5.00
2023-04-27T07:27:04.610Z,5.43
2023-04-27T07:29:31.332Z,4.43
2023-04-27T07:31:58.046Z,3.80
2023-04-27T07:34:24.505Z,4.28
2023-04-27T07:36:52.175Z,3.60
2023-04-27T07:39:18.971Z,4.45
2023-04-27T07:41:45.400Z,3.72
2023-04-27T07:44:12.329Z,4.03
2023-04-27T07:46:38.912Z,4.75
2023-04-27T07:49:05.568Z,3.25
2023-04-27T07:51:32.045Z,3.60
2023-04-27T07:53:58.357Z,6.55
2023-04-27T07:56:24.779Z,8.00
2023-04-27T07:58:51.274Z,7.05
2023-04-27T08:01:20.202Z,7.07
2023-04-27T08:03:48.010Z,8.63
2023-04-27T08:06:15.071Z,7.78
2023-04-27T08:08:41.790Z,6.88
2023-04-27T08:11:11.670Z,4.28
2023-04-27T08:13:38.175Z,7.32
2023-04-27T08:16:04.682Z,11.80
2023-04-27T08:18:31.137Z,6.55
2023-04-27T08:20:57.507Z,8.70
2023-04-27T08:23:26.903Z,7.82
2023-04-27T08:25:55.327Z,7.60
2023-04-27T08:28:23.227Z,6.32
2023-04-27T08:30:49.621Z,6.57
2023-04-27T08:33:16.042Z,6.18
2023-04-27T08:35:42.374Z,9.48
2023-04-27T08:38:08.714Z,7.47
2023-04-27T08:40:35.094Z,7.47
2023-04-27T08:43:01.514Z,7.88
2023-04-27T08:45:28.023Z,8.77
2023-04-27T08:47:55.753Z,5.65
2023-04-27T08:50:24.189Z,7.93
2023-04-27T08:52:51.041Z,6.35
2023-04-27T08:55:17.457Z,7.90
2023-04-27T08:57:53.798Z,4.70
2023-04-27T09:00:20.468Z,8.60
2023-04-27T09:02:47.665Z,6.90
2023-04-27T09:05:21.323Z,6.10
2023-04-27T09:08:01.472Z,6.28
2023-04-27T09:10:29.659Z,3.25
2023-04-27T09:12:57.588Z,4.05
2023-04-27T09:15:24.161Z,3.35
2023-04-27T09:17:54.397Z,3.60
2023-04-27T09:20:21.026Z,3.42
2023-04-27T09:22:52.817Z,3.30
2023-04-27T09:25:37.305Z,3.00
2023-04-27T09:28:03.839Z,2.83
2023-04-27T09:30:30.472Z,3.97
2023-04-27T09:32:57.872Z,3.97
2023-04-27T09:35:24.261Z,3.97
2023-04-27T09:37:52.860Z,3.80
2023-04-27T09:40:19.817Z,4.10
2023-04-27T09:42:46.690Z,3.47
2023-04-27T09:45:13.509Z,4.05
2023-04-27T09:47:40.881Z,3.72
2023-04-27T09:50:08.335Z,3.55
2023-04-27T09:52:34.792Z,3.50
2023-04-27T09:55:02.312Z,4.15
2023-04-27T09:57:40.675Z,3.25
2023-04-27T10:00:19.425Z,3.60
2023-04-27T10:02:53.888Z,3.95
2023-04-27T10:05:23.767Z,3.72
2023-04-27T10:07:51.611Z,3.20
2023-04-27T10:10:18.697Z,4.60
2023-04-27T10:12:55.377Z,3.65
2023-04-27T10:15:26.032Z,4.13
2023-04-27T10:17:58.763Z,4.07
2023-04-27T10:20:32.011Z,3.72
2023-04-27T10:22:59.444Z,4.47
2023-04-27T10:25:30.412Z,4.25
2023-04-27T10:27:56.865Z,4.22
2023-04-27T10:30:24.290Z,3.95
2023-04-27T10:32:53.788Z,4.05
2023-04-27T10:35:21.619Z,4.75
2023-04-27T10:37:48.172Z,4.70
2023-04-27T10:40:17.321Z,3.20
2023-04-27T10:42:49.307Z,3.63
2023-04-27T10:45:28.505Z,4.05
2023-04-27T10:48:00.429Z,4.40
2023-04-27T10:50:27.474Z,4.68
2023-04-27T10:52:53.800Z,3.42
2023-04-27T10:55:21.208Z,4.28
2023-04-27T10:57:51.668Z,3.78
2023-04-27T11:00:25.430Z,3.55
2023-04-27T11:02:52.334Z,4.47
2023-04-27T11:05:19.580Z,4.00
2023-04-27T11:07:49.816Z,3.85
2023-04-27T11:10:17.189Z,3.97
2023-04-27T11:12:43.646Z,4.53
2023-04-27T11:15:10.717Z,4.35
2023-04-27T11:17:37.209Z,3.63
2023-04-27T11:20:06.473Z,5.68
2023-04-27T11:22:32.978Z,6.68
2023-04-27T11:24:59.420Z,6.78
2023-04-27T11:27:36.869Z,7.40
2023-04-27T11:30:03.359Z,7.55
2023-04-27T11:32:29.812Z,6.28
2023-04-27T11:34:57.281Z,9.55
2023-04-27T11:37:26.674Z,7.57
2023-04-27T11:39:57.476Z,8.20
2023-04-27T11:42:31.507Z,7.07
2023-04-27T11:45:07.750Z,8.20
2023-04-27T11:47:35.545Z,6.63
2023-04-27T11:50:06.241Z,7.57
2023-04-27T11:52:34.148Z,6.53
2023-04-27T11:55:01.328Z,7.43
2023-04-27T11:57:32.154Z,8.10
2023-04-27T12:00:00.349Z,8.60
2023-04-27T12:02:31.803Z,7.18
2023-04-27T12:04:59.894Z,7.35
2023-04-27T12:07:27.001Z,6.75
2023-04-27T12:09:53.367Z,5.85
2023-04-27T12:12:22.324Z,7.07
2023-04-27T12:14:49.061Z,8.45
2023-04-27T12:17:15.586Z,7.80
2023-04-27T12:19:42.351Z,8.73
2023-04-27T12:22:09.682Z,8.40
2023-04-27T12:24:37.046Z,6.65
2023-04-27T12:27:04.505Z,8.63
2023-04-27T12:29:32.141Z,10.57
2023-04-27T12:31:59.016Z,6.90
2023-04-27T12:34:25.909Z,6.88
2023-04-27T12:36:52.384Z,6.00
2023-04-27T12:39:19.891Z,6.47
2023-04-27T12:41:49.827Z,6.60
2023-04-27T12:44:16.885Z,5.78
2023-04-27T12:46:43.901Z,7.65
2023-04-27T12:49:11.066Z,6.95
2023-04-27T12:51:37.403Z,7.93
2023-04-27T12:54:04.289Z,7.38
2023-04-27T12:56:30.902Z,8.38
2023-04-27T12:58:57.294Z,6.88
2023-04-27T13:01:27.756Z,6.57
2023-04-27T13:04:04.276Z,6.75
2023-04-27T13:06:31.951Z,6.53
2023-04-27T13:08:58.895Z,6.70
2023-04-27T13:11:25.919Z,6.80
2023-04-27T13:13:52.427Z,7.13
2023-04-27T13:16:21.686Z,5.93
2023-04-27T13:18:49.815Z,6.50
2023-04-27T13:21:16.644Z,7.95
2023-04-27T13:23:42.981Z,7.03
2023-04-27T13:26:09.415Z,5.78
2023-04-27T13:28:35.930Z,7.05
2023-04-27T13:31:02.379Z,8.18
2023-04-27T13:33:28.803Z,6.70
2023-04-27T13:35:55.184Z,7.45
2023-04-27T13:38:21.594Z,15.70
2023-04-27T13:40:47.917Z,9.05
2023-04-27T13:43:14.268Z,13.60
2023-04-27T13:45:42.446Z,8.13
2023-04-27T13:48:08.910Z,8.18
2023-04-27T13:50:35.446Z,9.13
2023-04-27T13:53:01.978Z,10.88
2023-04-27T13:55:28.590Z,8.75
2023-04-27T13:57:54.931Z,8.15
2023-04-27T14:00:21.587Z,10.73
2023-04-27T14:02:48.023Z,9.52
2023-04-27T14:05:14.526Z,11.50
2023-04-27T14:07:41.009Z,12.07
2023-04-27T14:10:07.688Z,8.23
2023-04-27T14:12:34.082Z,8.15
2023-04-27T14:15:00.415Z,9.52
2023-04-27T14:17:26.839Z,9.18
2023-04-27T14:19:53.369Z,8.55
2023-04-27T14:22:19.742Z,9.80
2023-04-27T14:24:46.586Z,9.27
2023-04-27T14:27:12.912Z,10.00
2023-04-27T14:29:39.280Z,11.70
2023-04-27T14:32:06.354Z,12.05
2023-04-27T14:34:32.895Z,10.27
2023-04-27T14:36:59.238Z,11.70
2023-04-27T14:39:28.043Z,10.75
2023-04-27T14:41:55.981Z,10.43
2023-04-27T14:44:23.863Z,9.68
2023-04-27T14:46:50.289Z,10.38
2023-04-27T14:49:16.901Z,9.98
2023-04-27T14:51:43.728Z,9.63
2023-04-27T14:54:10.374Z,10.70
2023-04-27T14:56:36.810Z,10.43
2023-04-27T14:59:03.292Z,11.48
2023-04-27T15:01:29.697Z,11.63
2023-04-27T15:03:58.055Z,11.05
2023-04-27T15:06:28.152Z,10.85
2023-04-27T15:08:55.095Z,12.30
2023-04-27T15:11:22.078Z,9.20
2023-04-27T15:13:48.688Z,11.60
2023-04-27T15:16:15.429Z,11.65
2023-04-27T15:18:42.238Z,10.40
2023-04-27T15:21:08.733Z,10.98
2023-04-27T15:23:37.189Z,10.77
2023-04-27T15:26:03.648Z,11.00
2023-04-27T15:28:31.379Z,11.75
2023-04-27T15:30:57.771Z,10.77
2023-04-27T15:33:24.265Z,10.52
2023-04-27T15:35:50.750Z,10.13
2023-04-27T15:38:17.966Z,11.43
2023-04-27T15:40:44.450Z,13.93
2023-04-27T15:43:11.002Z,12.05
2023-04-27T15:45:37.557Z,10.50
2023-04-27T15:48:04.022Z,10.98
2023-04-27T15:50:31.095Z,10.80
2023-04-27T15:52:57.530Z,10.35
2023-04-27T15:55:23.982Z,12.52
2023-04-27T15:57:50.743Z,10.73
2023-04-27T16:00:18.837Z,10.20
2023-04-27T16:02:46.445Z,9.65
2023-04-27T16:05:13.192Z,10.98
2023-04-27T16:07:39.914Z,8.80
2023-04-27T16:10:07.192Z,12.20
2023-04-27T16:12:33.944Z,13.93
2023-04-27T16:15:00.892Z,11.13
2023-04-27T16:17:28.010Z,14.45
2023-04-27T16:19:54.492Z,14.52
2023-04-27T16:22:22.011Z,14.40
2023-04-27T16:24:48.449Z,3.55
2023-04-27T16:27:15.060Z,3.20
2023-04-27T16:29:41.402Z,3.70
2023-04-27T16:32:08.294Z,3.80
2023-04-27T16:34:34.890Z,3.83
2023-04-27T16:37:01.206Z,3.30
2023-04-27T16:39:27.507Z,4.05
2023-04-27T16:41:53.864Z,3.65
2023-04-27T16:44:20.325Z,3.83
2023-04-27T16:46:47.410Z,3.40
2023-04-27T16:49:14.087Z,3.88
2023-04-27T16:51:40.699Z,4.13
2023-04-27T16:54:07.243Z,4.00
2023-04-27T16:56:34.571Z,4.07
2023-04-27T16:59:01.345Z,3.53
2023-04-27T17:01:29.987Z,4.10
2023-04-27T17:03:57.687Z,3.97
2023-04-27T17:06:28.169Z,3.00
2023-04-27T17:08:57.815Z,3.83
2023-04-27T17:11:24.329Z,3.90
2023-04-27T17:13:50.872Z,3.67
2023-04-27T17:16:18.003Z,2.60
2023-04-27T17:18:44.908Z,3.80
2023-04-27T17:21:11.916Z,3.33
2023-04-27T17:23:38.823Z,3.08
2023-04-27T17:26:07.657Z,4.13
2023-04-27T17:28:34.553Z,3.53
2023-04-27T17:31:01.745Z,4.50
2023-04-27T17:33:28.223Z,3.60
2023-04-27T17:35:55.655Z,4.53
2023-04-27T17:38:22.067Z,3.22
2023-04-27T17:40:48.493Z,3.50
2023-04-27T17:43:14.843Z,3.90
2023-04-27T17:45:41.250Z,4.43
2023-04-27T17:48:07.765Z,3.65
2023-04-27T17:50:35.984Z,4.30
2023-04-27T17:53:02.405Z,3.95
2023-04-27T17:55:28.962Z,3.13
2023-04-27T17:57:55.401Z,5.50
2023-04-27T18:00:22.066Z,4.32
2023-04-27T18:02:49.746Z,4.82
2023-04-27T18:05:16.939Z,3.70
2023-04-27T18:07:43.379Z,4.75
2023-04-27T18:10:09.848Z,4.40
2023-04-27T18:12:36.161Z,3.50
2023-04-27T18:15:05.002Z,4.03
2023-04-27T18:17:32.277Z,4.00
2023-04-27T18:20:08.197Z,4.00
2023-04-27T18:22:36.335Z,4.97
2023-04-27T18:25:02.774Z,4.85
2023-04-27T18:27:32.068Z,6.15
2023-04-27T18:29:58.785Z,4.72
2023-04-27T18:32:29.037Z,4.50
2023-04-27T18:34:56.382Z,5.18
2023-04-27T18:37:24.359Z,5.32
2023-04-27T18:39:53.123Z,5.97
2023-04-27T18:42:20.290Z,5.93
2023-04-27T18:44:48.770Z,5.30
2023-04-27T18:47:15.692Z,5.18
2023-04-27T18:49:43.306Z,5.40
2023-04-27T18:52:11.530Z,5.05
2023-04-27T18:54:39.245Z,5.10
2023-04-27T18:57:08.224Z,5.40
2023-04-27T18:59:35.887Z,5.47
2023-04-27T19:02:02.547Z,5.30
2023-04-27T19:04:28.952Z,5.32
2023-04-27T19:06:55.425Z,3.90
2023-04-27T19:09:21.836Z,4.63
2023-04-27T19:11:56.103Z,10.88
2023-04-27T19:14:28.690Z,10.90
2023-04-27T19:16:55.636Z,10.63
2023-04-27T19:19:22.021Z,10.15
2023-04-27T19:21:48.550Z,9.48
2023-04-27T19:24:14.960Z,10.52
2023-04-27T19:26:41.578Z,10.15
2023-04-27T19:29:08.433Z,10.70
2023-04-27T19:31:35.119Z,10.43
2023-04-27T19:34:04.110Z,9.98
2023-04-27T19:36:34.100Z,10.00
2023-04-27T19:39:00.590Z,9.90
2023-04-27T19:41:27.075Z,9.55
2023-04-27T19:43:55.474Z,10.20
2023-04-27T19:46:22.164Z,8.80
2023-04-27T19:48:48.611Z,11.20
2023-04-27T19:51:15.005Z,10.10
2023-04-27T19:53:42.775Z,9.90
2023-04-27T19:56:09.387Z,9.13
2023-04-27T19:58:36.005Z,8.63
2023-04-27T20:01:03.400Z,9.02
2023-04-27T20:03:30.368Z,8.43
2023-04-27T20:05:57.436Z,8.93
2023-04-27T20:08:24.063Z,7.97
2023-04-27T20:10:51.924Z,8.15
2023-04-27T20:13:18.450Z,8.95
2023-04-27T20:15:45.268Z,8.07
2023-04-27T20:18:12.320Z,8.13
2023-04-27T20:20:39.203Z,7.50
2023-04-27T20:23:05.624Z,8.05
2023-04-27T20:25:33.513Z,7.85
2023-04-27T20:28:00.228Z,7.78
2023-04-27T20:30:27.820Z,8.18
2023-04-27T20:32:55.476Z,8.63
2023-04-27T20:35:22.322Z,8.55
2023-04-27T20:37:54.587Z,8.30
2023-04-27T20:40:21.647Z,7.63
2023-04-27T20:42:51.866Z,7.60
2023-04-27T20:45:18.729Z,8.48
2023-04-27T20:47:45.327Z,7.47
2023-04-27T20:50:11.790Z,7.38
2023-04-27T20:52:38.260Z,5.68
2023-04-27T20:55:04.957Z,6.85
2023-04-27T20:57:31.528Z,6.93
2023-04-27T20:59:58.181Z,7.95
2023-04-27T21:02:24.698Z,7.85
2023-04-27T21:04:52.071Z,8.13
2023-04-27T21:07:18.525Z,7.75
2023-04-27T21:09:44.910Z,8.63
2023-04-27T21:12:14.313Z,7.15
2023-04-27T21:14:40.851Z,7.60
2023-04-27T21:17:08.598Z,7.47
2023-04-27T21:19:35.234Z,8.32
2023-04-27T21:22:02.014Z,7.85
2023-04-27T21:24:28.418Z,7.50
2023-04-27T21:26:54.853Z,6.93
2023-04-27T21:29:21.496Z,6.85
2023-04-27T21:31:47.871Z,7.57
2023-04-27T21:34:14.677Z,7.72
2023-04-27T21:36:43.812Z,8.55
2023-04-27T21:39:10.633Z,8.68
2023-04-27T21:41:39.168Z,10.02
2023-04-27T21:44:05.668Z,7.43
2023-04-27T21:46:32.032Z,8.30
2023-04-27T21:48:58.428Z,6.25
2023-04-27T21:51:28.137Z,7.88
2023-04-27T21:53:54.798Z,7.22
2023-04-27T21:56:21.845Z,8.57
2023-04-27T21:58:48.271Z,7.53
2023-04-27T22:01:14.790Z,7.25
2023-04-27T22:03:44.493Z,7.90
2023-04-27T22:06:11.642Z,9.77
2023-04-27T22:08:38.143Z,9.57
2023-04-27T22:11:06.361Z,9.00
2023-04-27T22:13:32.904Z,9.15
2023-04-27T22:16:01.440Z,8.90
2023-04-27T22:18:30.577Z,8.30
2023-04-27T22:20:58.215Z,7.53
2023-04-27T22:23:24.925Z,9.30
2023-04-27T22:25:51.520Z,7.53
2023-04-27T22:28:17.904Z,8.82
2023-04-27T22:30:44.378Z,7.30
2023-04-27T22:33:11.118Z,7.57
2023-04-27T22:35:37.702Z,6.78
2023-04-27T22:38:04.226Z,6.13
2023-04-27T22:40:30.736Z,7.40
2023-04-27T22:42:57.134Z,7.90
2023-04-27T22:45:23.780Z,8.82
2023-04-27T22:47:53.805Z,7.75
2023-04-27T22:50:20.601Z,8.57
2023-04-27T22:52:47.037Z,9.05
2023-04-27T22:55:16.543Z,8.57
2023-04-27T22:57:45.870Z,7.85
2023-04-27T23:00:13.650Z,8.73
2023-04-27T23:02:40.894Z,7.00
2023-04-27T23:05:13.617Z,6.70
2023-04-27T23:07:43.604Z,8.18
2023-04-27T23:10:13.083Z,9.15
2023-04-27T23:12:39.616Z,8.38
2023-04-27T23:15:06.350Z,9.82
2023-04-27T23:17:38.118Z,8.77
2023-04-27T23:20:24.071Z,8.20
2023-04-27T23:22:55.998Z,7.28
2023-04-27T23:25:22.514Z,7.18
2023-04-27T23:27:52.540Z,7.03
2023-04-27T23:30:22.738Z,8.35
2023-04-27T23:32:49.353Z,7.18
2023-04-27T23:35:22.106Z,7.53
2023-04-27T23:37:54.194Z,7.60
2023-04-27T23:40:20.867Z,8.20
2023-04-27T23:42:50.871Z,8.25
2023-04-27T23:45:18.105Z,6.93
2023-04-27T23:47:44.669Z,7.40
2023-04-27T23:50:13.830Z,8.18
2023-04-27T23:52:40.326Z,6.82
2023-04-27T23:55:10.307Z,7.95
2023-04-27T23:57:36.750Z,7.18
